sensor_id;sensor_type;location;lat;lon;timestamp;pressure;altitude;pressure_sealevel;temperature
19948;BMP180;10135;50.702;7.276;2023-10-08T05:31:45;100263.00;;;20.50
19948;BMP180;10135;50.702;7.276;2023-10-08T05:33:46;100259.00;;;20.50
19948;BMP180;10135;50.702;7.276;2023-10-08T05:36:05;100242.00;;;20.50
19948;BMP180;10135;50.702;7.276;2023-10-08T05:38:14;100245.00;;;20.50
19948;BMP180;10135;50.702;7.276;2023-10-08T05:40:31;100235.00;;;20.60
19948;BMP180;10135;50.702;7.276;2023-10-08T05:42:54;100241.00;;;20.60
19948;BMP180;10135;50.702;7.276;2023-10-08T05:45:01;100237.00;;;20.50
19948;BMP180;10135;50.702;7.276;2023-10-08T05:47:12;100237.00;;;20.50
19948;BMP180;10135;50.702;7.276;2023-10-08T05:49:29;100248.00;;;20.50
19948;BMP180;10135;50.702;7.276;2023-10-08T05:51:34;100261.00;;;20.50
19948;BMP180;10135;50.702;7.276;2023-10-08T05:53:47;100262.00;;;20.50
19948;BMP180;10135;50.702;7.276;2023-10-08T05:55:50;100262.00;;;20.50
19948;BMP180;10135;50.702;7.276;2023-10-08T05:58:06;100265.00;;;20.50
19948;BMP180;10135;50.702;7.276;2023-10-08T06:00:19;100271.00;;;20.50
19948;BMP180;10135;50.702;7.276;2023-10-08T06:02:43;100279.00;;;20.50
19948;BMP180;10135;50.702;7.276;2023-10-08T06:04:46;100264.00;;;20.50
19948;BMP180;10135;50.702;7.276;2023-10-08T06:07:06;100273.00;;;20.50
19948;BMP180;10135;50.702;7.276;2023-10-08T06:09:33;100265.00;;;20.50
19948;BMP180;10135;50.702;7.276;2023-10-08T06:11:38;100270.00;;;20.50
19948;BMP180;10135;50.702;7.276;2023-10-08T06:13:45;100274.00;;;20.50
19948;BMP180;10135;50.702;7.276;2023-10-08T06:15:52;100279.00;;;20.50
19948;BMP180;10135;50.702;7.276;2023-10-08T06:17:55;100308.00;;;20.50
19948;BMP180;10135;50.702;7.276;2023-10-08T06:19:56;100309.00;;;20.50
19948;BMP180;10135;50.702;7.276;2023-10-08T06:21:57;100318.00;;;20.50
19948;BMP180;10135;50.702;7.276;2023-10-08T06:23:57;100318.00;;;20.40
19948;BMP180;10135;50.702;7.276;2023-10-08T06:25:58;100312.00;;;20.40
19948;BMP180;10135;50.702;7.276;2023-10-08T06:28:05;100313.00;;;20.40
19948;BMP180;10135;50.702;7.276;2023-10-08T06:30:12;100315.00;;;20.30
19948;BMP180;10135;50.702;7.276;2023-10-08T06:32:17;100314.00;;;20.30
19948;BMP180;10135;50.702;7.276;2023-10-08T06:34:23;100311.00;;;20.30
19948;BMP180;10135;50.702;7.276;2023-10-08T06:36:28;100310.00;;;20.30
19948;BMP180;10135;50.702;7.276;2023-10-08T06:38:31;100314.00;;;20.30
19948;BMP180;10135;50.702;7.276;2023-10-08T06:40:32;100325.00;;;20.30
19948;BMP180;10135;50.702;7.276;2023-10-08T06:42:38;100322.00;;;20.30
19948;BMP180;10135;50.702;7.276;2023-10-08T06:44:39;100317.00;;;20.30
19948;BMP180;10135;50.702;7.276;2023-10-08T06:46:43;100331.00;;;20.30
19948;BMP180;10135;50.702;7.276;2023-10-08T06:48:43;100332.00;;;20.30
19948;BMP180;10135;50.702;7.276;2023-10-08T06:50:51;100323.00;;;20.40
19948;BMP180;10135;50.702;7.276;2023-10-08T06:52:57;100314.00;;;20.40
19948;BMP180;10135;50.702;7.276;2023-10-08T06:54:57;100305.00;;;20.40
19948;BMP180;10135;50.702;7.276;2023-10-08T06:57:03;100306.00;;;20.40
19948;BMP180;10135;50.702;7.276;2023-10-08T06:59:04;100297.00;;;20.40
19948;BMP180;10135;50.702;7.276;2023-10-08T07:01:11;100300.00;;;20.40
19948;BMP180;10135;50.702;7.276;2023-10-08T07:03:15;100302.00;;;20.40
19948;BMP180;10135;50.702;7.276;2023-10-08T07:05:17;100299.00;;;20.40
19948;BMP180;10135;50.702;7.276;2023-10-08T07:07:22;100289.00;;;20.50
19948;BMP180;10135;50.702;7.276;2023-10-08T07:09:23;100307.00;;;20.50
19948;BMP180;10135;50.702;7.276;2023-10-08T07:11:30;100317.00;;;20.50
19948;BMP180;10135;50.702;7.276;2023-10-08T07:13:35;100307.00;;;20.60
19948;BMP180;10135;50.702;7.276;2023-10-08T07:15:37;100312.00;;;20.60
19948;BMP180;10135;50.702;7.276;2023-10-08T07:17:41;100312.00;;;20.60
19948;BMP180;10135;50.702;7.276;2023-10-08T07:19:43;100324.00;;;20.70
19948;BMP180;10135;50.702;7.276;2023-10-08T07:21:47;100314.00;;;20.70
19948;BMP180;10135;50.702;7.276;2023-10-08T07:23:50;100315.00;;;20.70
19948;BMP180;10135;50.702;7.276;2023-10-08T07:26:02;100332.00;;;20.80
19948;BMP180;10135;50.702;7.276;2023-10-08T07:28:11;100331.00;;;20.80
19948;BMP180;10135;50.702;7.276;2023-10-08T07:30:13;100326.00;;;20.80
19948;BMP180;10135;50.702;7.276;2023-10-08T07:32:18;100325.00;;;20.90
19948;BMP180;10135;50.702;7.276;2023-10-08T07:34:20;100315.00;;;20.90
19948;BMP180;10135;50.702;7.276;2023-10-08T07:36:25;100303.00;;;20.90
19948;BMP180;10135;50.702;7.276;2023-10-08T07:38:29;100312.00;;;21.00
19948;BMP180;10135;50.702;7.276;2023-10-08T07:40:30;100312.00;;;21.00
19948;BMP180;10135;50.702;7.276;2023-10-08T07:42:31;100308.00;;;21.00
19948;BMP180;10135;50.702;7.276;2023-10-08T07:44:32;100308.00;;;21.00
19948;BMP180;10135;50.702;7.276;2023-10-08T07:46:36;100309.00;;;21.10
19948;BMP180;10135;50.702;7.276;2023-10-08T07:48:37;100321.00;;;21.10
19948;BMP180;10135;50.702;7.276;2023-10-08T07:50:44;100315.00;;;21.10
19948;BMP180;10135;50.702;7.276;2023-10-08T07:52:46;100307.00;;;21.20
19948;BMP180;10135;50.702;7.276;2023-10-08T07:54:47;100296.00;;;21.20
19948;BMP180;10135;50.702;7.276;2023-10-08T07:56:51;100308.00;;;21.20
19948;BMP180;10135;50.702;7.276;2023-10-08T07:58:53;100303.00;;;21.20
19948;BMP180;10135;50.702;7.276;2023-10-08T08:00:56;100312.00;;;21.20
19948;BMP180;10135;50.702;7.276;2023-10-08T08:02:56;100321.00;;;21.30
19948;BMP180;10135;50.702;7.276;2023-10-08T08:04:58;100326.00;;;21.30
19948;BMP180;10135;50.702;7.276;2023-10-08T08:06:58;100333.00;;;21.30
19948;BMP180;10135;50.702;7.276;2023-10-08T08:09:04;100331.00;;;21.30
19948;BMP180;10135;50.702;7.276;2023-10-08T08:11:20;100341.00;;;21.40
19948;BMP180;10135;50.702;7.276;2023-10-08T08:13:26;100339.00;;;21.40
19948;BMP180;10135;50.702;7.276;2023-10-08T08:15:28;100336.00;;;21.40
19948;BMP180;10135;50.702;7.276;2023-10-08T08:17:30;100338.00;;;21.50
19948;BMP180;10135;50.702;7.276;2023-10-08T08:19:31;100339.00;;;21.50
19948;BMP180;10135;50.702;7.276;2023-10-08T08:21:32;100358.00;;;21.50
19948;BMP180;10135;50.702;7.276;2023-10-08T08:23:32;100361.00;;;21.60
19948;BMP180;10135;50.702;7.276;2023-10-08T08:25:41;100362.00;;;21.60
19948;BMP180;10135;50.702;7.276;2023-10-08T08:28:05;100365.00;;;21.70
19948;BMP180;10135;50.702;7.276;2023-10-08T08:30:08;100356.00;;;21.80
19948;BMP180;10135;50.702;7.276;2023-10-08T08:32:16;100354.00;;;21.90
19948;BMP180;10135;50.702;7.276;2023-10-08T08:34:22;100352.00;;;22.00
19948;BMP180;10135;50.702;7.276;2023-10-08T08:36:24;100349.00;;;22.00
19948;BMP180;10135;50.702;7.276;2023-10-08T08:38:25;100339.00;;;22.00
19948;BMP180;10135;50.702;7.276;2023-10-08T08:40:25;100346.00;;;22.10
19948;BMP180;10135;50.702;7.276;2023-10-08T08:42:30;100346.00;;;22.10
19948;BMP180;10135;50.702;7.276;2023-10-08T08:44:37;100345.00;;;22.20
19948;BMP180;10135;50.702;7.276;2023-10-08T08:46:47;100348.00;;;22.20
19948;BMP180;10135;50.702;7.276;2023-10-08T08:48:50;100353.00;;;22.20
19948;BMP180;10135;50.702;7.276;2023-10-08T08:50:51;100361.00;;;22.20
19948;BMP180;10135;50.702;7.276;2023-10-08T08:52:53;100359.00;;;22.20
19948;BMP180;10135;50.702;7.276;2023-10-08T08:54:54;100363.00;;;22.20
19948;BMP180;10135;50.702;7.276;2023-10-08T08:56:56;100365.00;;;22.30
19948;BMP180;10135;50.702;7.276;2023-10-08T08:58:59;100359.00;;;22.30
19948;BMP180;10135;50.702;7.276;2023-10-08T09:01:01;100364.00;;;22.30
19948;BMP180;10135;50.702;7.276;2023-10-08T09:03:04;100363.00;;;22.30
19948;BMP180;10135;50.702;7.276;2023-10-08T09:05:08;100358.00;;;22.30
19948;BMP180;10135;50.702;7.276;2023-10-08T09:07:35;100365.00;;;22.30
19948;BMP180;10135;50.702;7.276;2023-10-08T09:09:35;100361.00;;;22.30
19948;BMP180;10135;50.702;7.276;2023-10-08T09:11:40;100363.00;;;22.30
19948;BMP180;10135;50.702;7.276;2023-10-08T09:13:44;100359.00;;;22.30
19948;BMP180;10135;50.702;7.276;2023-10-08T09:15:44;100361.00;;;22.30
19948;BMP180;10135;50.702;7.276;2023-10-08T09:17:45;100360.00;;;22.30
19948;BMP180;10135;50.702;7.276;2023-10-08T09:19:46;100368.00;;;22.30
19948;BMP180;10135;50.702;7.276;2023-10-08T09:22:00;100375.00;;;22.30
19948;BMP180;10135;50.702;7.276;2023-10-08T09:24:03;100378.00;;;22.30
19948;BMP180;10135;50.702;7.276;2023-10-08T09:26:13;100376.00;;;22.30
19948;BMP180;10135;50.702;7.276;2023-10-08T09:28:15;100378.00;;;22.40
19948;BMP180;10135;50.702;7.276;2023-10-08T09:30:17;100371.00;;;22.40
19948;BMP180;10135;50.702;7.276;2023-10-08T09:32:19;100373.00;;;22.40
19948;BMP180;10135;50.702;7.276;2023-10-08T09:34:29;100376.00;;;22.50
19948;BMP180;10135;50.702;7.276;2023-10-08T09:36:32;100380.00;;;22.50
19948;BMP180;10135;50.702;7.276;2023-10-08T09:38:36;100374.00;;;22.60
19948;BMP180;10135;50.702;7.276;2023-10-08T09:40:39;100375.00;;;22.60
19948;BMP180;10135;50.702;7.276;2023-10-08T09:42:42;100370.00;;;22.70
19948;BMP180;10135;50.702;7.276;2023-10-08T09:44:43;100376.00;;;22.70
19948;BMP180;10135;50.702;7.276;2023-10-08T09:46:57;100379.00;;;22.80
19948;BMP180;10135;50.702;7.276;2023-10-08T09:49:01;100382.00;;;22.90
19948;BMP180;10135;50.702;7.276;2023-10-08T09:51:02;100388.00;;;22.90
19948;BMP180;10135;50.702;7.276;2023-10-08T09:53:14;100379.00;;;22.90
19948;BMP180;10135;50.702;7.276;2023-10-08T09:55:18;100392.00;;;23.00
19948;BMP180;10135;50.702;7.276;2023-10-08T09:57:18;100396.00;;;23.00
19948;BMP180;10135;50.702;7.276;2023-10-08T09:59:20;100407.00;;;23.00
19948;BMP180;10135;50.702;7.276;2023-10-08T10:01:22;100416.00;;;23.10
19948;BMP180;10135;50.702;7.276;2023-10-08T10:03:25;100414.00;;;23.10
19948;BMP180;10135;50.702;7.276;2023-10-08T10:05:30;100413.00;;;23.10
19948;BMP180;10135;50.702;7.276;2023-10-08T10:07:32;100405.00;;;23.20
19948;BMP180;10135;50.702;7.276;2023-10-08T10:09:32;100411.00;;;23.20
19948;BMP180;10135;50.702;7.276;2023-10-08T10:11:36;100414.00;;;23.20
19948;BMP180;10135;50.702;7.276;2023-10-08T10:13:51;100417.00;;;23.20
19948;BMP180;10135;50.702;7.276;2023-10-08T10:15:58;100423.00;;;23.30
19948;BMP180;10135;50.702;7.276;2023-10-08T10:18:09;100422.00;;;23.30
19948;BMP180;10135;50.702;7.276;2023-10-08T10:20:14;100430.00;;;23.30
19948;BMP180;10135;50.702;7.276;2023-10-08T10:22:31;100431.00;;;23.30
19948;BMP180;10135;50.702;7.276;2023-10-08T10:24:36;100429.00;;;23.40
19948;BMP180;10135;50.702;7.276;2023-10-08T10:26:37;100422.00;;;23.40
19948;BMP180;10135;50.702;7.276;2023-10-08T10:28:40;100428.00;;;23.40
19948;BMP180;10135;50.702;7.276;2023-10-08T10:30:41;100433.00;;;23.40
19948;BMP180;10135;50.702;7.276;2023-10-08T10:32:45;100426.00;;;23.40
19948;BMP180;10135;50.702;7.276;2023-10-08T10:34:48;100437.00;;;23.40
19948;BMP180;10135;50.702;7.276;2023-10-08T10:36:53;100443.00;;;23.40
19948;BMP180;10135;50.702;7.276;2023-10-08T10:38:59;100431.00;;;23.40
19948;BMP180;10135;50.702;7.276;2023-10-08T10:41:03;100429.00;;;23.40
19948;BMP180;10135;50.702;7.276;2023-10-08T10:43:09;100432.00;;;23.50
19948;BMP180;10135;50.702;7.276;2023-10-08T10:45:16;100430.00;;;23.50
19948;BMP180;10135;50.702;7.276;2023-10-08T10:47:35;100428.00;;;23.50
19948;BMP180;10135;50.702;7.276;2023-10-08T10:49:50;100436.00;;;23.50
19948;BMP180;10135;50.702;7.276;2023-10-08T10:51:53;100439.00;;;23.50
19948;BMP180;10135;50.702;7.276;2023-10-08T10:53:58;100439.00;;;23.50
19948;BMP180;10135;50.702;7.276;2023-10-08T10:56:08;100432.00;;;23.60
19948;BMP180;10135;50.702;7.276;2023-10-08T10:58:11;100424.00;;;23.60
19948;BMP180;10135;50.702;7.276;2023-10-08T11:00:12;100423.00;;;23.60
19948;BMP180;10135;50.702;7.276;2023-10-08T11:02:39;100430.00;;;23.60
19948;BMP180;10135;50.702;7.276;2023-10-08T11:04:43;100429.00;;;23.70
19948;BMP180;10135;50.702;7.276;2023-10-08T11:06:51;100433.00;;;23.70
19948;BMP180;10135;50.702;7.276;2023-10-08T11:08:57;100431.00;;;23.70
19948;BMP180;10135;50.702;7.276;2023-10-08T11:10:58;100429.00;;;23.70
19948;BMP180;10135;50.702;7.276;2023-10-08T11:12:59;100424.00;;;23.70
19948;BMP180;10135;50.702;7.276;2023-10-08T11:15:01;100417.00;;;23.70
19948;BMP180;10135;50.702;7.276;2023-10-08T11:17:25;100422.00;;;23.70
19948;BMP180;10135;50.702;7.276;2023-10-08T11:19:31;100421.00;;;23.80
19948;BMP180;10135;50.702;7.276;2023-10-08T11:21:32;100420.00;;;23.80
19948;BMP180;10135;50.702;7.276;2023-10-08T11:23:43;100413.00;;;23.80
19948;BMP180;10135;50.702;7.276;2023-10-08T11:25:59;100411.00;;;23.80
19948;BMP180;10135;50.702;7.276;2023-10-08T11:28:03;100406.00;;;23.90
19948;BMP180;10135;50.702;7.276;2023-10-08T11:30:09;100404.00;;;23.90
19948;BMP180;10135;50.702;7.276;2023-10-08T11:32:12;100401.00;;;23.90
19948;BMP180;10135;50.702;7.276;2023-10-08T11:34:13;100404.00;;;24.00
19948;BMP180;10135;50.702;7.276;2023-10-08T11:36:17;100396.00;;;24.00
19948;BMP180;10135;50.702;7.276;2023-10-08T11:38:26;100403.00;;;24.00
19948;BMP180;10135;50.702;7.276;2023-10-08T11:40:27;100397.00;;;24.00
19948;BMP180;10135;50.702;7.276;2023-10-08T11:42:49;100407.00;;;24.10
19948;BMP180;10135;50.702;7.276;2023-10-08T11:44:51;100408.00;;;24.10
19948;BMP180;10135;50.702;7.276;2023-10-08T11:46:53;100407.00;;;24.10
19948;BMP180;10135;50.702;7.276;2023-10-08T11:48:54;100394.00;;;24.10
19948;BMP180;10135;50.702;7.276;2023-10-08T11:51:01;100392.00;;;24.10
19948;BMP180;10135;50.702;7.276;2023-10-08T11:53:06;100387.00;;;24.20
19948;BMP180;10135;50.702;7.276;2023-10-08T11:55:10;100391.00;;;24.20
19948;BMP180;10135;50.702;7.276;2023-10-08T11:57:16;100386.00;;;24.20
19948;BMP180;10135;50.702;7.276;2023-10-08T11:59:22;100380.00;;;24.20
19948;BMP180;10135;50.702;7.276;2023-10-08T12:01:26;100380.00;;;24.20
19948;BMP180;10135;50.702;7.276;2023-10-08T12:03:27;100376.00;;;24.20
19948;BMP180;10135;50.702;7.276;2023-10-08T12:05:28;100381.00;;;24.20
19948;BMP180;10135;50.702;7.276;2023-10-08T12:07:29;100390.00;;;24.30
19948;BMP180;10135;50.702;7.276;2023-10-08T12:09:30;100391.00;;;24.30
19948;BMP180;10135;50.702;7.276;2023-10-08T12:11:30;100394.00;;;24.30
19948;BMP180;10135;50.702;7.276;2023-10-08T12:13:31;100384.00;;;24.30
19948;BMP180;10135;50.702;7.276;2023-10-08T12:15:33;100379.00;;;24.30
19948;BMP180;10135;50.702;7.276;2023-10-08T12:17:39;100377.00;;;24.30
19948;BMP180;10135;50.702;7.276;2023-10-08T12:19:40;100375.00;;;24.30
19948;BMP180;10135;50.702;7.276;2023-10-08T12:21:46;100375.00;;;24.30
19948;BMP180;10135;50.702;7.276;2023-10-08T12:23:47;100375.00;;;24.30
19948;BMP180;10135;50.702;7.276;2023-10-08T12:25:53;100372.00;;;24.30
19948;BMP180;10135;50.702;7.276;2023-10-08T12:27:56;100374.00;;;24.30
19948;BMP180;10135;50.702;7.276;2023-10-08T12:29:57;100376.00;;;24.40
19948;BMP180;10135;50.702;7.276;2023-10-08T12:31:59;100373.00;;;24.40
19948;BMP180;10135;50.702;7.276;2023-10-08T12:34:08;100369.00;;;24.40
19948;BMP180;10135;50.702;7.276;2023-10-08T12:36:12;100374.00;;;24.40
19948;BMP180;10135;50.702;7.276;2023-10-08T12:38:13;100374.00;;;24.40
19948;BMP180;10135;50.702;7.276;2023-10-08T12:40:14;100375.00;;;24.40
19948;BMP180;10135;50.702;7.276;2023-10-08T12:42:24;100374.00;;;24.30
19948;BMP180;10135;50.702;7.276;2023-10-08T12:44:25;100357.00;;;24.30
19948;BMP180;10135;50.702;7.276;2023-10-08T12:46:27;100347.00;;;24.30
19948;BMP180;10135;50.702;7.276;2023-10-08T12:48:31;100356.00;;;24.30
19948;BMP180;10135;50.702;7.276;2023-10-08T12:50:32;100358.00;;;24.20
19948;BMP180;10135;50.702;7.276;2023-10-08T12:52:44;100355.00;;;24.20
19948;BMP180;10135;50.702;7.276;2023-10-08T12:54:53;100353.00;;;24.20
19948;BMP180;10135;50.702;7.276;2023-10-08T12:56:55;100357.00;;;24.20
19948;BMP180;10135;50.702;7.276;2023-10-08T12:58:58;100355.00;;;24.10
19948;BMP180;10135;50.702;7.276;2023-10-08T13:00:59;100362.00;;;24.10
19948;BMP180;10135;50.702;7.276;2023-10-08T13:03:04;100370.00;;;24.10
19948;BMP180;10135;50.702;7.276;2023-10-08T13:05:22;100372.00;;;24.10
19948;BMP180;10135;50.702;7.276;2023-10-08T13:07:28;100370.00;;;24.00
19948;BMP180;10135;50.702;7.276;2023-10-08T13:09:33;100378.00;;;24.00
19948;BMP180;10135;50.702;7.276;2023-10-08T13:11:37;100365.00;;;24.00
19948;BMP180;10135;50.702;7.276;2023-10-08T13:13:39;100363.00;;;24.00
19948;BMP180;10135;50.702;7.276;2023-10-08T13:15:40;100352.00;;;24.00
19948;BMP180;10135;50.702;7.276;2023-10-08T13:17:42;100322.00;;;24.00
19948;BMP180;10135;50.702;7.276;2023-10-08T13:19:43;100319.00;;;23.90
19948;BMP180;10135;50.702;7.276;2023-10-08T13:21:46;100330.00;;;23.90
19948;BMP180;10135;50.702;7.276;2023-10-08T13:23:48;100326.00;;;23.90
19948;BMP180;10135;50.702;7.276;2023-10-08T13:25:53;100337.00;;;23.90
19948;BMP180;10135;50.702;7.276;2023-10-08T13:27:54;100326.00;;;23.90
19948;BMP180;10135;50.702;7.276;2023-10-08T13:29:55;100333.00;;;23.90
19948;BMP180;10135;50.702;7.276;2023-10-08T13:31:55;100333.00;;;23.90
19948;BMP180;10135;50.702;7.276;2023-10-08T13:33:57;100335.00;;;23.80
19948;BMP180;10135;50.702;7.276;2023-10-08T13:36:01;100316.00;;;23.80
19948;BMP180;10135;50.702;7.276;2023-10-08T13:38:01;100305.00;;;23.80
19948;BMP180;10135;50.702;7.276;2023-10-08T13:40:10;100297.00;;;23.80
19948;BMP180;10135;50.702;7.276;2023-10-08T13:42:15;100311.00;;;23.80
19948;BMP180;10135;50.702;7.276;2023-10-08T13:44:21;100312.00;;;23.80
19948;BMP180;10135;50.702;7.276;2023-10-08T13:46:29;100311.00;;;23.90
19948;BMP180;10135;50.702;7.276;2023-10-08T13:48:32;100300.00;;;23.90
19948;BMP180;10135;50.702;7.276;2023-10-08T13:50:33;100297.00;;;23.90
19948;BMP180;10135;50.702;7.276;2023-10-08T13:52:36;100296.00;;;23.90
19948;BMP180;10135;50.702;7.276;2023-10-08T13:54:39;100294.00;;;23.90
19948;BMP180;10135;50.702;7.276;2023-10-08T13:56:47;100296.00;;;23.90
19948;BMP180;10135;50.702;7.276;2023-10-08T13:58:48;100300.00;;;23.90
19948;BMP180;10135;50.702;7.276;2023-10-08T14:00:52;100293.00;;;23.90
19948;BMP180;10135;50.702;7.276;2023-10-08T14:02:53;100293.00;;;23.90
19948;BMP180;10135;50.702;7.276;2023-10-08T14:04:54;100293.00;;;23.90
19948;BMP180;10135;50.702;7.276;2023-10-08T14:06:54;100290.00;;;23.90
19948;BMP180;10135;50.702;7.276;2023-10-08T14:08:55;100292.00;;;23.80
19948;BMP180;10135;50.702;7.276;2023-10-08T14:10:56;100299.00;;;23.80
19948;BMP180;10135;50.702;7.276;2023-10-08T14:13:03;100302.00;;;23.90
19948;BMP180;10135;50.702;7.276;2023-10-08T14:15:04;100304.00;;;23.80
19948;BMP180;10135;50.702;7.276;2023-10-08T14:17:07;100292.00;;;23.80
19948;BMP180;10135;50.702;7.276;2023-10-08T14:19:10;100294.00;;;23.80
19948;BMP180;10135;50.702;7.276;2023-10-08T14:21:12;100261.00;;;23.90
19948;BMP180;10135;50.702;7.276;2023-10-08T14:23:13;100248.00;;;23.80
19948;BMP180;10135;50.702;7.276;2023-10-08T14:25:17;100285.00;;;23.80
19948;BMP180;10135;50.702;7.276;2023-10-08T14:27:18;100290.00;;;23.80
19948;BMP180;10135;50.702;7.276;2023-10-08T14:29:25;100282.00;;;23.80
19948;BMP180;10135;50.702;7.276;2023-10-08T14:31:27;100265.00;;;23.80
19948;BMP180;10135;50.702;7.276;2023-10-08T14:33:28;100255.00;;;23.80
19948;BMP180;10135;50.702;7.276;2023-10-08T14:35:32;100254.00;;;23.80
19948;BMP180;10135;50.702;7.276;2023-10-08T14:37:51;100257.00;;;23.90
19948;BMP180;10135;50.702;7.276;2023-10-08T14:40:10;100263.00;;;23.90
19948;BMP180;10135;50.702;7.276;2023-10-08T14:42:29;100253.00;;;23.90
19948;BMP180;10135;50.702;7.276;2023-10-08T14:44:48;100249.00;;;23.90
19948;BMP180;10135;50.702;7.276;2023-10-08T14:46:51;100251.00;;;23.80
19948;BMP180;10135;50.702;7.276;2023-10-08T14:48:52;100253.00;;;23.80
19948;BMP180;10135;50.702;7.276;2023-10-08T14:50:52;100251.00;;;23.80
19948;BMP180;10135;50.702;7.276;2023-10-08T14:52:54;100255.00;;;23.80
19948;BMP180;10135;50.702;7.276;2023-10-08T14:54:55;100259.00;;;23.80
19948;BMP180;10135;50.702;7.276;2023-10-08T14:56:57;100256.00;;;23.80
19948;BMP180;10135;50.702;7.276;2023-10-08T14:58:58;100255.00;;;23.80
19948;BMP180;10135;50.702;7.276;2023-10-08T15:00:59;100248.00;;;23.70
19948;BMP180;10135;50.702;7.276;2023-10-08T15:02:59;100245.00;;;23.70
19948;BMP180;10135;50.702;7.276;2023-10-08T15:05:07;100241.00;;;23.70
19948;BMP180;10135;50.702;7.276;2023-10-08T15:07:08;100236.00;;;23.70
19948;BMP180;10135;50.702;7.276;2023-10-08T15:09:11;100234.00;;;23.70
19948;BMP180;10135;50.702;7.276;2023-10-08T15:11:19;100240.00;;;23.70
19948;BMP180;10135;50.702;7.276;2023-10-08T15:13:19;100236.00;;;23.70
19948;BMP180;10135;50.702;7.276;2023-10-08T15:15:20;100237.00;;;23.70
19948;BMP180;10135;50.702;7.276;2023-10-08T15:17:25;100238.00;;;23.70
19948;BMP180;10135;50.702;7.276;2023-10-08T15:19:26;100241.00;;;23.60
19948;BMP180;10135;50.702;7.276;2023-10-08T15:21:27;100247.00;;;23.60
19948;BMP180;10135;50.702;7.276;2023-10-08T15:23:29;100248.00;;;23.60
19948;BMP180;10135;50.702;7.276;2023-10-08T15:25:32;100242.00;;;23.60
19948;BMP180;10135;50.702;7.276;2023-10-08T15:27:33;100242.00;;;23.60
19948;BMP180;10135;50.702;7.276;2023-10-08T15:29:34;100243.00;;;23.60
19948;BMP180;10135;50.702;7.276;2023-10-08T15:31:35;100246.00;;;23.60
19948;BMP180;10135;50.702;7.276;2023-10-08T15:33:36;100246.00;;;23.50
19948;BMP180;10135;50.702;7.276;2023-10-08T15:35:39;100248.00;;;23.50
19948;BMP180;10135;50.702;7.276;2023-10-08T15:37:42;100255.00;;;23.50
19948;BMP180;10135;50.702;7.276;2023-10-08T15:39:42;100255.00;;;23.50
19948;BMP180;10135;50.702;7.276;2023-10-08T15:41:43;100252.00;;;23.50
19948;BMP180;10135;50.702;7.276;2023-10-08T15:43:43;100251.00;;;23.50
19948;BMP180;10135;50.702;7.276;2023-10-08T15:45:45;100247.00;;;23.50
19948;BMP180;10135;50.702;7.276;2023-10-08T15:47:46;100252.00;;;23.50
19948;BMP180;10135;50.702;7.276;2023-10-08T15:49:47;100249.00;;;23.50
19948;BMP180;10135;50.702;7.276;2023-10-08T15:51:48;100243.00;;;23.50
19948;BMP180;10135;50.702;7.276;2023-10-08T15:53:48;100241.00;;;23.50
19948;BMP180;10135;50.702;7.276;2023-10-08T15:55:49;100244.00;;;23.50
19948;BMP180;10135;50.702;7.276;2023-10-08T15:57:50;100245.00;;;23.50
19948;BMP180;10135;50.702;7.276;2023-10-08T15:59:51;100243.00;;;23.50
19948;BMP180;10135;50.702;7.276;2023-10-08T16:01:51;100246.00;;;23.50
19948;BMP180;10135;50.702;7.276;2023-10-08T16:03:52;100240.00;;;23.50
19948;BMP180;10135;50.702;7.276;2023-10-08T16:05:53;100241.00;;;23.50
19948;BMP180;10135;50.702;7.276;2023-10-08T16:07:55;100239.00;;;23.40
19948;BMP180;10135;50.702;7.276;2023-10-08T16:09:59;100237.00;;;23.40
19948;BMP180;10135;50.702;7.276;2023-10-08T16:11:59;100232.00;;;23.40
19948;BMP180;10135;50.702;7.276;2023-10-08T16:14:00;100240.00;;;23.40
19948;BMP180;10135;50.702;7.276;2023-10-08T16:16:01;100237.00;;;23.40
19948;BMP180;10135;50.702;7.276;2023-10-08T16:18:01;100230.00;;;23.40
19948;BMP180;10135;50.702;7.276;2023-10-08T16:20:05;100227.00;;;23.40
19948;BMP180;10135;50.702;7.276;2023-10-08T16:22:14;100218.00;;;23.40
19948;BMP180;10135;50.702;7.276;2023-10-08T16:24:14;100217.00;;;23.40
19948;BMP180;10135;50.702;7.276;2023-10-08T16:26:15;100221.00;;;23.30
19948;BMP180;10135;50.702;7.276;2023-10-08T16:28:18;100217.00;;;23.30
19948;BMP180;10135;50.702;7.276;2023-10-08T16:30:22;100211.00;;;23.30
19948;BMP180;10135;50.702;7.276;2023-10-08T16:32:23;100210.00;;;23.30
19948;BMP180;10135;50.702;7.276;2023-10-08T16:34:24;100216.00;;;23.30
19948;BMP180;10135;50.702;7.276;2023-10-08T16:36:27;100206.00;;;23.30
19948;BMP180;10135;50.702;7.276;2023-10-08T16:38:29;100198.00;;;23.20
19948;BMP180;10135;50.702;7.276;2023-10-08T16:40:29;100203.00;;;23.20
19948;BMP180;10135;50.702;7.276;2023-10-08T16:42:30;100206.00;;;23.20
19948;BMP180;10135;50.702;7.276;2023-10-08T16:44:32;100205.00;;;23.20
19948;BMP180;10135;50.702;7.276;2023-10-08T16:46:33;100201.00;;;23.20
19948;BMP180;10135;50.702;7.276;2023-10-08T16:48:34;100210.00;;;23.20
19948;BMP180;10135;50.702;7.276;2023-10-08T16:50:35;100202.00;;;23.10
19948;BMP180;10135;50.702;7.276;2023-10-08T16:52:35;100202.00;;;23.10
19948;BMP180;10135;50.702;7.276;2023-10-08T16:54:36;100205.00;;;23.10
19948;BMP180;10135;50.702;7.276;2023-10-08T16:56:37;100206.00;;;23.10
19948;BMP180;10135;50.702;7.276;2023-10-08T16:58:38;100210.00;;;23.10
19948;BMP180;10135;50.702;7.276;2023-10-08T17:00:38;100216.00;;;23.00
19948;BMP180;10135;50.702;7.276;2023-10-08T17:02:39;100217.00;;;23.00
19948;BMP180;10135;50.702;7.276;2023-10-08T17:04:40;100211.00;;;23.00
19948;BMP180;10135;50.702;7.276;2023-10-08T17:06:41;100216.00;;;23.00
19948;BMP180;10135;50.702;7.276;2023-10-08T17:08:42;100214.00;;;22.90
19948;BMP180;10135;50.702;7.276;2023-10-08T17:10:43;100218.00;;;22.90
19948;BMP180;10135;50.702;7.276;2023-10-08T17:12:44;100223.00;;;22.90
19948;BMP180;10135;50.702;7.276;2023-10-08T17:14:44;100225.00;;;22.90
19948;BMP180;10135;50.702;7.276;2023-10-08T17:16:45;100227.00;;;22.80